Time;durP1;ratioP1;P1;durP2;ratioP2;P2;SDS_P1;SDS_P2;PMS_P1;PMS_P2;Temp;Humidity;BMP_temperature;BMP_pressure;BME280_temperature;BME280_humidity;BME280_pressure;Samples;Min_cycle;Max_cycle;Signal;HPM_P1;HPM_P2
2021/12/10 00:10:16;;;;;;;37.77;16.03;;;;;;;0.17;100.00;99466.23;713955;1206;114334;-72
2021/12/10 00:25:21;;;;;;;33.27;15.07;;;;;;;0.24;100.00;99458.97;713974;1200;114305;-71
2021/12/10 00:40:26;;;;;;;40.65;15.83;;;;;;;0.24;100.00;99431.44;713819;1200;114020;-72
2021/12/10 00:55:29;;;;;;;46.30;15.33;;;;;;;0.26;100.00;99431.34;714085;1203;114122;-72
2021/12/10 01:10:41;;;;;;;50.33;18.13;;;;;;;0.26;100.00;99395.22;713850;1201;115630;-70
2021/12/10 01:25:54;;;;;;;52.95;20.85;;;;;;;0.27;100.00;99374.48;713716;1178;113290;-71
2021/12/10 01:40:59;;;;;;;53.58;18.13;;;;;;;0.26;100.00;99364.27;713802;1181;114639;-70
2021/12/10 01:56:07;;;;;;;38.57;14.93;;;;;;;0.33;100.00;99355.25;713831;1184;114727;-71
2021/12/10 02:11:10;;;;;;;216.88;75.00;;;;;;;0.35;100.00;99322.42;713860;1200;114445;-72
2021/12/10 02:26:14;;;;;;;49.00;18.45;;;;;;;0.28;100.00;99313.41;713868;1200;114580;-72
2021/12/10 02:41:23;;;;;;;50.40;20.20;;;;;;;0.42;100.00;99302.23;713779;1177;114278;-72
2021/12/10 02:56:25;;;;;;;30.15;12.35;;;;;;;0.43;100.00;99266.00;713800;1177;113315;-71
2021/12/10 03:11:32;;;;;;;28.78;13.65;;;;;;;0.53;100.00;99248.20;713685;1176;114214;-71
2021/12/10 03:26:34;;;;;;;53.58;20.58;;;;;;;0.53;100.00;99235.30;713878;1178;114538;-71
2021/12/10 03:41:36;;;;;;;42.37;15.23;;;;;;;0.60;100.00;99203.00;713689;1205;114036;-70
2021/12/10 03:56:39;;;;;;;36.10;13.85;;;;;;;0.61;100.00;99201.27;713776;1204;114629;-71
2021/12/10 04:11:42;;;;;;;45.40;18.08;;;;;;;0.60;100.00;99195.25;713761;1201;115495;-71
2021/12/10 04:26:46;;;;;;;110.43;37.00;;;;;;;0.75;100.00;99190.88;713818;1205;114324;-71
2021/12/10 04:41:48;;;;;;;39.10;17.33;;;;;;;0.85;100.00;99190.28;713789;1205;114725;-71
2021/12/10 04:56:55;;;;;;;33.33;13.57;;;;;;;0.94;100.00;99181.93;713640;1205;114503;-72
2021/12/10 05:11:57;;;;;;;;;;;;;;;0.93;100.00;99173.34;713901;1202;114078;-71
2021/12/10 05:27:00;;;;;;;30.30;13.37;;;;;;;0.99;100.00;99165.20;713784;1202;99925;-71
2021/12/10 05:42:04;;;;;;;28.65;10.73;;;;;;;1.08;100.00;99155.17;713788;1202;115260;-71
2021/12/10 05:57:06;;;;;;;44.45;17.93;;;;;;;1.12;100.00;99134.21;714033;1176;113864;-72
2021/12/10 06:12:08;;;;;;;156.70;65.13;;;;;;;1.16;100.00;99122.73;713811;1200;114436;-71
2021/12/10 06:27:10;;;;;;;69.80;28.40;;;;;;;1.17;100.00;99115.80;715200;1200;115314;-70
2021/12/10 06:42:13;;;;;;;66.63;27.43;;;;;;;1.20;100.00;99107.87;715545;1204;113907;-69
2021/12/10 06:57:37;;;;;;;70.75;29.80;;;;;;;1.28;100.00;99112.48;714876;1178;114406;-71
2021/12/10 07:12:40;;;;;;;111.27;40.67;;;;;;;1.40;100.00;99129.76;715261;1202;115537;-75
2021/12/10 07:27:43;;;;;;;144.13;42.47;;;;;;;1.45;100.00;99112.18;715334;1200;114670;-75
2021/12/10 07:42:46;;;;;;;166.97;48.67;;;;;;;1.54;100.00;99096.95;715115;1202;114902;-77
2021/12/10 07:57:50;;;;;;;177.70;52.48;;;;;;;1.65;100.00;99094.46;715650;1177;114210;-75
2021/12/10 08:12:53;;;;;;;85.80;35.03;;;;;;;1.78;100.00;99081.47;714818;1200;115440;-74
2021/12/10 08:27:56;;;;;;;130.30;41.10;;;;;;;2.02;100.00;99101.36;714991;1179;113897;-71
2021/12/10 08:42:59;;;;;;;67.37;26.07;;;;;;;2.16;100.00;99099.45;715807;1203;114754;-76
2021/12/10 08:58:01;;;;;;;252.50;78.98;;;;;;;2.35;100.00;99077.41;714965;1200;114398;-73
2021/12/10 09:13:12;;;;;;;105.40;41.20;;;;;;;2.52;100.00;99080.52;714992;1200;114466;-71
2021/12/10 09:28:15;;;;;;;155.00;41.70;;;;;;;2.70;100.00;99071.38;715360;1199;114722;-75
2021/12/10 09:43:19;;;;;;;195.95;50.18;;;;;;;2.80;100.00;99066.35;715219;1201;115477;-74
2021/12/10 09:58:23;;;;;;;40.17;18.10;;;;;;;2.91;100.00;99055.17;715666;1202;114033;-74
2021/12/10 10:13:30;;;;;;;67.30;23.13;;;;;;;2.94;100.00;99054.93;715120;1200;113967;-73
2021/12/10 10:28:34;;;;;;;31.50;16.90;;;;;;;2.96;100.00;99084.16;715947;1200;113917;-73
2021/12/10 10:43:38;;;;;;;31.95;15.95;;;;;;;3.01;100.00;99082.05;715540;1203;114853;-73
2021/12/10 10:58:50;;;;;;;39.15;19.00;;;;;;;3.02;100.00;99070.71;716061;1201;115506;-72
2021/12/10 11:14:11;;;;;;;41.08;21.45;;;;;;;3.07;100.00;99071.19;715354;1177;114516;-74
2021/12/10 11:29:40;;;;;;;41.93;19.73;;;;;;;3.08;100.00;99061.67;715258;1180;113001;-73
2021/12/10 11:45:04;;;;;;;41.40;20.50;;;;;;;3.15;100.00;99068.02;715169;1202;114575;-74
2021/12/10 12:00:24;;;;;;;46.98;22.10;;;;;;;3.16;100.00;99062.71;715611;1200;114112;-73
2021/12/10 12:16:01;;;;;;;37.35;17.18;;;;;;;3.16;100.00;99056.72;715297;1184;113997;-73
2021/12/10 12:31:10;;;;;;;51.87;22.73;;;;;;;3.21;100.00;99061.53;714647;1177;114814;-73
2021/12/10 12:46:19;;;;;;;56.87;25.83;;;;;;;3.19;100.00;99045.29;714344;1205;113820;-73
2021/12/10 13:01:37;;;;;;;71.33;32.77;;;;;;;3.18;100.00;99048.81;714346;1202;114093;-74
2021/12/10 13:16:45;;;;;;;55.35;23.55;;;;;;;3.16;100.00;99054.94;714240;1200;113842;-73
2021/12/10 13:31:48;;;;;;;60.15;26.58;;;;;;;3.07;100.00;99085.92;714458;1202;114326;-73
2021/12/10 13:46:54;;;;;;;75.08;35.68;;;;;;;3.04;100.00;99091.35;714580;1202;115048;-73
2021/12/10 14:02:04;;;;;;;380.13;104.25;;;;;;;3.02;100.00;99104.39;714217;1205;113975;-73
2021/12/10 14:17:11;;;;;;;101.18;39.18;;;;;;;2.80;100.00;99113.79;714239;1203;114288;-75
2021/12/10 14:32:34;;;;;;;94.87;34.30;;;;;;;2.80;100.00;99118.16;714154;1178;114106;-75
2021/12/10 14:47:37;;;;;;;94.27;35.93;;;;;;;2.77;100.00;99120.95;714199;1204;113964;-74
2021/12/10 15:03:07;;;;;;;121.37;48.57;;;;;;;2.77;100.00;99132.16;713762;1189;113852;-76
2021/12/10 15:18:44;;;;;;;88.85;32.23;;;;;;;2.74;100.00;99153.08;714131;1203;114146;-72
2021/12/10 15:33:53;;;;;;;;;;;;;;;2.76;100.00;99166.77;714719;1202;115210;-71
2021/12/10 15:49:01;;;;;;;69.28;28.80;;;;;;;2.74;100.00;99194.52;714793;1200;101386;-70
2021/12/10 16:04:12;;;;;;;155.53;53.88;;;;;;;2.73;100.00;99205.00;714437;1204;114137;-71
2021/12/10 16:19:19;;;;;;;197.95;70.13;;;;;;;2.57;100.00;99211.28;714385;1200;114891;-73
2021/12/10 16:34:27;;;;;;;;;;;;;;;2.56;100.00;99232.11;715687;1207;114791;-72
2021/12/10 16:49:32;;;;;;;78.77;34.63;;;;;;;2.48;100.00;99241.27;714929;1202;101166;-73
2021/12/10 17:04:38;;;;;;;131.95;49.23;;;;;;;2.41;100.00;99236.63;715406;1182;113850;-72
2021/12/10 17:19:51;;;;;;;122.40;41.07;;;;;;;2.21;100.00;99249.20;714908;1200;114965;-73
2021/12/10 17:35:01;;;;;;;533.60;192.57;;;;;;;2.12;100.00;99249.84;714605;1202;115877;-73
2021/12/10 17:50:17;;;;;;;255.43;74.10;;;;;;;2.15;100.00;99253.05;715358;1200;114507;-71
2021/12/10 18:05:23;;;;;;;656.37;196.50;;;;;;;2.15;100.00;99268.58;714975;1176;114055;-72
2021/12/10 18:20:39;;;;;;;237.85;79.75;;;;;;;2.21;100.00;99282.84;714994;1203;114895;-74
2021/12/10 18:35:48;;;;;;;128.83;49.43;;;;;;;2.14;100.00;99287.63;714888;1200;115266;-69
2021/12/10 18:51:00;;;;;;;153.37;48.90;;;;;;;2.16;100.00;99298.70;715253;1200;114640;-69
2021/12/10 19:06:09;;;;;;;176.80;51.68;;;;;;;2.20;100.00;99296.72;714773;1193;115245;-70
2021/12/10 19:21:29;;;;;;;185.63;68.25;;;;;;;2.22;100.00;99315.56;715260;1202;114670;-71
2021/12/10 19:36:47;;;;;;;93.08;35.13;;;;;;;2.19;100.00;99335.64;715172;1176;113611;-70
2021/12/10 19:51:53;;;;;;;80.00;31.30;;;;;;;2.06;100.00;99344.25;714979;1203;114390;-70
2021/12/10 20:07:01;;;;;;;82.65;31.90;;;;;;;1.95;100.00;99346.72;715457;1176;114016;-71
2021/12/10 20:22:10;;;;;;;190.23;52.60;;;;;;;2.01;100.00;99372.19;715181;1177;113997;-71
2021/12/10 20:37:26;;;;;;;303.50;80.00;;;;;;;1.96;100.00;99397.53;715098;1177;114575;-70
2021/12/10 20:52:50;;;;;;;155.38;46.03;;;;;;;1.79;100.00;99380.55;715017;1202;114781;-70
2021/12/10 21:08:03;;;;;;;563.63;149.53;;;;;;;1.70;100.00;99387.13;715014;1177;114736;-71
2021/12/10 21:23:11;;;;;;;158.40;48.18;;;;;;;1.40;100.00;99418.38;714556;1200;115059;-71
2021/12/10 21:38:23;;;;;;;229.95;73.18;;;;;;;1.26;100.00;99419.28;714554;1200;114978;-71
2021/12/10 21:53:28;;;;;;;152.30;56.00;;;;;;;1.04;100.00;99425.77;714268;1206;114890;-71
2021/12/10 22:08:36;;;;;;;214.63;53.53;;;;;;;0.69;100.00;99433.95;714098;1204;114029;-72
2021/12/10 22:23:48;;;;;;;249.57;72.77;;;;;;;0.33;100.00;99436.05;714109;1200;114373;-71
2021/12/10 22:39:05;;;;;;;388.57;109.77;;;;;;;0.03;100.00;99448.99;713837;1204;114779;-71
2021/12/10 22:54:13;;;;;;;320.40;80.73;;;;;;;-0.15;100.00;99465.52;713987;1204;115806;-71
2021/12/10 23:09:33;;;;;;;221.43;68.70;;;;;;;-0.45;100.00;99479.20;713790;1177;114929;-71
2021/12/10 23:24:43;;;;;;;603.40;187.47;;;;;;;-0.59;100.00;99487.70;713782;1205;115242;-71
2021/12/10 23:39:59;;;;;;;258.90;79.55;;;;;;;-0.98;100.00;99504.36;713930;1200;114808;-71
2021/12/10 23:55:09;;;;;;;277.33;83.10;;;;;;;-1.09;99.78;99528.92;714301;1200;115783;-73
